createdAt,value
2018-12-13T00:02:35.668Z,100.00
2018-12-13T00:05:39.008Z,100.00
2018-12-13T00:08:42.318Z,100.00
2018-12-13T00:11:45.724Z,100.00
2018-12-13T00:14:49.131Z,100.00
2018-12-13T00:17:52.437Z,100.00
2018-12-13T00:20:55.752Z,100.00
2018-12-13T00:23:59.120Z,100.00
2018-12-13T00:27:02.527Z,100.00
2018-12-13T00:30:06.129Z,100.00
2018-12-13T00:33:09.524Z,100.00
2018-12-13T00:36:12.927Z,100.00
2018-12-13T00:39:16.316Z,100.00
2018-12-13T00:42:19.694Z,100.00
2018-12-13T00:45:23.014Z,100.00
2018-12-13T00:48:26.317Z,100.00
2018-12-13T00:51:29.737Z,100.00
2018-12-13T00:54:33.113Z,100.00
2018-12-13T00:57:36.422Z,100.00
2018-12-13T01:00:39.825Z,100.00
2018-12-13T01:03:43.157Z,100.00
2018-12-13T01:06:46.509Z,100.00
2018-12-13T01:09:49.913Z,100.00
2018-12-13T01:12:53.226Z,100.00
2018-12-13T01:15:56.621Z,100.00
2018-12-13T01:18:59.904Z,100.00
2018-12-13T01:22:03.209Z,100.00
2018-12-13T01:25:06.659Z,100.00
2018-12-13T01:28:10.057Z,100.00
2018-12-13T01:31:13.433Z,100.00
2018-12-13T01:34:16.797Z,100.00
2018-12-13T01:37:20.110Z,100.00
2018-12-13T01:40:23.420Z,100.00
2018-12-13T01:43:26.846Z,100.00
2018-12-13T01:46:30.177Z,100.00
2018-12-13T01:49:33.493Z,100.00
2018-12-13T01:52:36.853Z,100.00
2018-12-13T01:55:40.302Z,100.00
2018-12-13T01:58:43.705Z,100.00
2018-12-13T02:05:03.996Z,100.00
2018-12-13T02:08:07.380Z,100.00
2018-12-13T02:11:10.880Z,100.00
2018-12-13T02:14:14.193Z,100.00
2018-12-13T02:17:17.534Z,100.00
2018-12-13T02:20:20.872Z,100.00
2018-12-13T02:23:24.198Z,100.00
2018-12-13T02:26:27.652Z,100.00
2018-12-13T02:29:31.109Z,100.00
2018-12-13T02:32:34.513Z,100.00
2018-12-13T02:35:38.135Z,100.00
2018-12-13T02:38:41.602Z,100.00
2018-12-13T02:41:44.959Z,100.00
2018-12-13T02:44:48.289Z,100.00
2018-12-13T02:47:51.653Z,100.00
2018-12-13T02:50:54.966Z,100.00
2018-12-13T02:53:58.316Z,100.00
2018-12-13T02:57:01.679Z,100.00
2018-12-13T03:00:06.499Z,100.00
2018-12-13T03:03:09.904Z,100.00
2018-12-13T03:06:13.241Z,100.00
2018-12-13T03:09:16.608Z,100.00
2018-12-13T03:12:19.947Z,100.00
2018-12-13T03:15:23.256Z,100.00
2018-12-13T03:18:26.576Z,100.00
2018-12-13T03:21:29.982Z,100.00
2018-12-13T03:24:33.397Z,100.00
2018-12-13T03:27:36.824Z,100.00
2018-12-13T03:30:40.224Z,100.00
2018-12-13T03:33:43.639Z,100.00
2018-12-13T03:36:46.953Z,100.00
2018-12-13T03:39:50.270Z,100.00
2018-12-13T03:42:53.853Z,100.00
2018-12-13T03:45:57.151Z,100.00
2018-12-13T03:49:00.463Z,100.00
2018-12-13T03:52:03.878Z,100.00
2018-12-13T03:55:07.324Z,100.00
2018-12-13T03:58:10.666Z,100.00
2018-12-13T04:01:13.977Z,100.00
2018-12-13T04:04:17.302Z,100.00
2018-12-13T04:07:27.621Z,100.00
2018-12-13T04:10:26.101Z,100.00
2018-12-13T04:13:29.414Z,100.00
2018-12-13T04:16:32.776Z,100.00
2018-12-13T04:19:36.141Z,100.00
2018-12-13T04:22:39.538Z,100.00
2018-12-13T04:25:43.006Z,100.00
2018-12-13T04:28:46.328Z,100.00
2018-12-13T04:31:50.713Z,100.00
2018-12-13T04:34:54.320Z,100.00
2018-12-13T04:37:57.653Z,100.00
2018-12-13T04:41:00.990Z,100.00
2018-12-13T04:44:04.410Z,100.00
2018-12-13T04:47:07.962Z,100.00
2018-12-13T04:53:28.085Z,100.00
2018-12-13T04:56:31.425Z,100.00
2018-12-13T04:59:34.801Z,100.00
2018-12-13T05:02:38.138Z,100.00
2018-12-13T05:05:41.864Z,100.00
2018-12-13T05:08:45.329Z,100.00
2018-12-13T05:11:48.791Z,100.00
2018-12-13T05:14:52.308Z,100.00
2018-12-13T05:17:55.869Z,100.00
2018-12-13T05:20:59.199Z,100.00
2018-12-13T05:24:02.557Z,100.00
2018-12-13T05:27:05.889Z,100.00
2018-12-13T05:30:09.322Z,100.00
2018-12-13T05:33:12.949Z,100.00
2018-12-13T05:36:16.638Z,100.00
2018-12-13T05:39:20.069Z,100.00
2018-12-13T05:42:23.504Z,100.00
2018-12-13T05:45:26.808Z,100.00
2018-12-13T05:48:30.131Z,100.00
2018-12-13T05:51:33.489Z,100.00
2018-12-13T05:54:36.833Z,100.00
2018-12-13T05:57:40.146Z,100.00
2018-12-13T06:00:43.504Z,100.00
2018-12-13T06:03:46.880Z,100.00
2018-12-13T06:06:50.280Z,100.00
2018-12-13T06:09:53.619Z,100.00
2018-12-13T06:12:56.920Z,100.00
2018-12-13T06:16:00.317Z,100.00
2018-12-13T06:19:03.780Z,100.00
2018-12-13T06:22:07.250Z,100.00
2018-12-13T06:25:10.659Z,100.00
2018-12-13T06:28:14.029Z,100.00
2018-12-13T06:31:17.783Z,100.00
2018-12-13T06:34:21.119Z,100.00
2018-12-13T06:37:24.535Z,100.00
2018-12-13T06:40:27.916Z,100.00
2018-12-13T06:43:31.233Z,100.00
2018-12-13T06:46:34.594Z,100.00
2018-12-13T06:49:37.930Z,100.00
2018-12-13T06:52:41.574Z,100.00
2018-12-13T06:55:45.037Z,100.00
2018-12-13T06:58:48.349Z,100.00
2018-12-13T07:01:51.704Z,100.00
2018-12-13T07:04:55.888Z,100.00
2018-12-13T07:07:59.286Z,100.00
2018-12-13T07:11:02.621Z,100.00
2018-12-13T07:14:06.476Z,100.00
2018-12-13T07:17:09.970Z,100.00
2018-12-13T07:20:13.283Z,100.00
2018-12-13T07:23:17.506Z,100.00
2018-12-13T07:26:20.910Z,100.00
2018-12-13T07:29:24.258Z,100.00
2018-12-13T07:32:27.890Z,100.00
2018-12-13T07:35:31.224Z,100.00
2018-12-13T07:38:35.452Z,100.00
2018-12-13T07:41:39.294Z,100.00
2018-12-13T07:44:42.649Z,100.00
2018-12-13T07:47:46.744Z,100.00
2018-12-13T07:50:52.404Z,100.00
2018-12-13T07:53:55.772Z,100.00
2018-12-13T07:56:59.145Z,100.00
2018-12-13T08:00:02.466Z,100.00
2018-12-13T08:03:05.865Z,100.00
2018-12-13T08:06:09.196Z,100.00
2018-12-13T08:09:12.542Z,100.00
2018-12-13T08:12:15.859Z,100.00
2018-12-13T08:15:19.843Z,100.00
2018-12-13T08:18:23.306Z,100.00
2018-12-13T08:21:26.663Z,100.00
2018-12-13T08:24:29.973Z,100.00
2018-12-13T08:27:33.329Z,100.00
2018-12-13T08:30:36.970Z,100.00
2018-12-13T08:33:40.374Z,100.00
2018-12-13T08:36:43.825Z,100.00
2018-12-13T08:39:47.184Z,100.00
2018-12-13T08:42:50.497Z,100.00
2018-12-13T08:45:53.946Z,100.00
2018-12-13T08:48:57.325Z,100.00
2018-12-13T08:52:00.673Z,100.00
2018-12-13T08:55:04.912Z,100.00
2018-12-13T08:58:08.389Z,99.15
2018-12-13T09:01:11.851Z,99.25
2018-12-13T09:04:15.292Z,99.82
2018-12-13T09:07:18.750Z,99.94
2018-12-13T09:10:22.161Z,99.52
2018-12-13T09:13:25.486Z,99.55
2018-12-13T09:16:31.687Z,98.20
2018-12-13T09:19:34.124Z,97.74
2018-12-13T09:22:37.465Z,98.99
2018-12-13T09:25:41.043Z,98.57
2018-12-13T09:28:44.333Z,98.12
2018-12-13T09:31:47.735Z,98.23
2018-12-13T09:34:51.166Z,98.33
2018-12-13T09:37:54.455Z,98.33
2018-12-13T09:44:14.546Z,98.88
2018-12-13T09:47:17.889Z,98.17
2018-12-13T09:50:21.254Z,98.07
2018-12-13T09:53:24.580Z,97.98
2018-12-13T09:56:27.925Z,98.85
2018-12-13T09:59:31.280Z,98.84
2018-12-13T10:02:34.688Z,98.52
2018-12-13T10:05:38.029Z,98.22
2018-12-13T10:08:46.290Z,98.80
2018-12-13T10:11:46.882Z,99.20
2018-12-13T10:14:50.284Z,97.43
2018-12-13T10:17:53.657Z,97.49
2018-12-13T10:20:57.069Z,97.05
2018-12-13T10:24:00.425Z,97.68
2018-12-13T10:27:03.868Z,97.53
2018-12-13T10:30:07.443Z,96.64
2018-12-13T10:33:10.821Z,97.18
2018-12-13T10:36:14.200Z,95.85
2018-12-13T10:39:17.569Z,95.21
2018-12-13T10:42:20.914Z,96.34
2018-12-13T10:45:24.279Z,96.86
2018-12-13T10:48:27.601Z,96.20
2018-12-13T10:51:31.063Z,96.27
2018-12-13T10:54:34.375Z,94.67
2018-12-13T10:57:37.714Z,94.57
2018-12-13T11:00:47.010Z,94.03
2018-12-13T11:03:50.435Z,93.81
2018-12-13T11:06:53.730Z,93.68
2018-12-13T11:09:57.179Z,93.60
2018-12-13T11:13:00.616Z,94.19
2018-12-13T11:16:04.093Z,93.46
2018-12-13T11:22:44.466Z,92.35
2018-12-13T11:25:47.777Z,93.07
2018-12-13T11:29:09.080Z,92.83
2018-12-13T11:32:12.470Z,92.03
2018-12-13T11:35:15.853Z,91.92
2018-12-13T11:38:19.165Z,91.13
2018-12-13T11:41:22.552Z,90.43
2018-12-13T11:44:26.000Z,88.70
2018-12-13T11:47:29.330Z,87.11
2018-12-13T11:50:32.681Z,87.59
2018-12-13T11:53:36.302Z,87.72
2018-12-13T11:56:39.879Z,89.09
2018-12-13T11:59:43.306Z,90.42
2018-12-13T12:02:46.616Z,87.95
2018-12-13T12:05:49.938Z,87.48
2018-12-13T12:08:53.245Z,86.71
2018-12-13T12:11:56.806Z,86.76
2018-12-13T12:15:00.272Z,85.88
2018-12-13T12:18:03.603Z,85.92
2018-12-13T12:21:06.913Z,84.97
2018-12-13T12:24:10.238Z,85.40
2018-12-13T12:27:13.571Z,85.90
2018-12-13T12:30:17.252Z,86.56
2018-12-13T12:33:20.658Z,87.49
2018-12-13T12:36:23.969Z,89.20
2018-12-13T12:39:27.357Z,89.35
2018-12-13T12:42:30.710Z,89.84
2018-12-13T12:45:34.046Z,89.95
2018-12-13T12:48:37.424Z,90.65
2018-12-13T12:51:40.775Z,91.22
2018-12-13T12:54:44.171Z,91.63
2018-12-13T12:57:47.483Z,92.04
2018-12-13T13:00:51.678Z,91.85
2018-12-13T13:03:54.983Z,90.82
2018-12-13T13:06:58.326Z,90.25
2018-12-13T13:10:01.629Z,90.82
2018-12-13T13:13:04.970Z,90.12
2018-12-13T13:16:08.326Z,90.63
2018-12-13T13:19:12.961Z,91.16
2018-12-13T13:22:19.048Z,91.94
2018-12-13T13:25:22.410Z,91.73
2018-12-13T13:28:26.945Z,90.20
2018-12-13T13:31:30.449Z,91.24
2018-12-13T13:34:33.841Z,90.50
2018-12-13T13:37:37.146Z,91.85
2018-12-13T13:40:40.536Z,92.47
2018-12-13T13:43:43.893Z,93.46
2018-12-13T13:46:47.221Z,93.00
2018-12-13T13:49:50.546Z,91.81
2018-12-13T13:52:53.877Z,91.76
2018-12-13T13:55:57.206Z,92.14
2018-12-13T13:59:00.613Z,91.81
2018-12-13T14:02:04.263Z,91.71
2018-12-13T14:05:07.717Z,92.17
2018-12-13T14:11:25.273Z,92.36
2018-12-13T14:14:29.598Z,91.93
2018-12-13T14:17:32.990Z,93.20
2018-12-13T14:20:36.418Z,93.06
2018-12-13T14:23:39.819Z,91.20
2018-12-13T14:26:43.197Z,91.57
2018-12-13T14:29:46.561Z,90.87
2018-12-13T14:32:49.921Z,91.14
2018-12-13T14:35:53.334Z,90.88
2018-12-13T14:38:56.682Z,90.58
2018-12-13T14:42:00.090Z,90.88
2018-12-13T14:45:04.106Z,90.88
2018-12-13T14:48:08.969Z,90.44
2018-12-13T14:51:12.571Z,89.75
2018-12-13T14:54:15.894Z,90.51
2018-12-13T14:57:19.350Z,91.31
2018-12-13T15:00:22.690Z,91.46
2018-12-13T15:03:26.009Z,91.48
2018-12-13T15:06:29.440Z,92.25
2018-12-13T15:09:32.749Z,92.98
2018-12-13T15:12:36.206Z,92.65
2018-12-13T15:18:57.914Z,92.51
2018-12-13T15:22:01.625Z,92.47
2018-12-13T15:25:05.723Z,92.73
2018-12-13T15:28:09.382Z,91.82
2018-12-13T15:31:13.145Z,91.79
2018-12-13T15:34:16.615Z,91.83
2018-12-13T15:37:19.974Z,92.96
2018-12-13T15:40:23.398Z,93.43
2018-12-13T15:43:26.840Z,92.83
2018-12-13T15:46:30.238Z,92.43
2018-12-13T15:49:33.729Z,92.87
2018-12-13T15:52:37.098Z,93.28
2018-12-13T15:55:40.402Z,93.27
2018-12-13T15:58:43.846Z,93.60
2018-12-13T16:01:47.239Z,93.84
2018-12-13T16:04:50.569Z,93.29
2018-12-13T16:07:53.989Z,94.18
2018-12-13T16:10:57.339Z,94.10
2018-12-13T16:14:05.049Z,94.38
2018-12-13T16:17:08.437Z,94.61
2018-12-13T16:20:11.758Z,94.29
2018-12-13T16:23:15.127Z,94.35
2018-12-13T16:26:18.510Z,95.20
2018-12-13T16:29:21.849Z,95.36
2018-12-13T16:32:25.187Z,95.82
2018-12-13T16:35:28.522Z,96.35
2018-12-13T16:38:32.747Z,96.57
2018-12-13T16:41:36.120Z,97.31
2018-12-13T16:47:59.301Z,97.59
2018-12-13T16:51:02.721Z,97.24
2018-12-13T16:54:06.134Z,98.46
2018-12-13T17:00:26.401Z,97.93
2018-12-13T17:03:39.373Z,96.94
2018-12-13T17:06:42.734Z,97.32
2018-12-13T17:09:46.137Z,96.87
2018-12-13T17:12:49.574Z,97.40
2018-12-13T17:15:53.854Z,96.85
2018-12-13T17:18:57.191Z,96.86
2018-12-13T17:22:00.606Z,97.58
2018-12-13T17:25:04.600Z,97.46
2018-12-13T17:28:08.094Z,96.92
2018-12-13T17:31:11.498Z,97.62
2018-12-13T17:34:14.858Z,98.51
2018-12-13T17:37:18.186Z,98.96
2018-12-13T17:40:23.231Z,98.75
2018-12-13T17:43:26.746Z,98.86
2018-12-13T17:46:30.077Z,98.12
2018-12-13T17:49:33.525Z,98.01
2018-12-13T17:52:36.889Z,98.80
2018-12-13T17:55:40.212Z,97.67
2018-12-13T17:58:43.618Z,98.36
2018-12-13T18:01:46.977Z,98.15
2018-12-13T18:04:50.325Z,99.09
2018-12-13T18:07:53.757Z,99.28
2018-12-13T18:10:57.133Z,99.37
2018-12-13T18:14:00.447Z,99.18
2018-12-13T18:17:03.901Z,99.61
2018-12-13T18:20:07.348Z,100.00
2018-12-13T18:23:10.729Z,99.00
2018-12-13T18:26:14.061Z,98.14
2018-12-13T18:29:17.378Z,97.79
2018-12-13T18:32:20.825Z,96.65
2018-12-13T18:35:24.250Z,94.94
2018-12-13T18:38:27.557Z,95.55
2018-12-13T18:41:30.877Z,95.10
2018-12-13T18:44:34.224Z,93.88
2018-12-13T18:47:37.668Z,93.11
2018-12-13T18:50:40.961Z,92.95
2018-12-13T18:53:44.331Z,93.59
2018-12-13T18:56:47.766Z,94.50
2018-12-13T18:59:51.225Z,94.04
2018-12-13T19:02:54.615Z,94.76
2018-12-13T19:05:57.969Z,94.30
2018-12-13T19:09:01.282Z,95.24
2018-12-13T19:12:04.798Z,95.67
2018-12-13T19:15:08.150Z,95.38
2018-12-13T19:18:11.513Z,95.48
2018-12-13T19:21:14.843Z,94.07
2018-12-13T19:24:18.150Z,94.15
2018-12-13T19:27:21.525Z,93.68
2018-12-13T19:30:25.004Z,93.79
2018-12-13T19:33:28.315Z,93.82
2018-12-13T19:36:46.281Z,94.43
2018-12-13T19:39:49.645Z,93.94
2018-12-13T19:42:53.045Z,94.11
2018-12-13T19:45:56.834Z,94.39
2018-12-13T19:49:00.295Z,93.89
2018-12-13T19:52:03.640Z,94.24
2018-12-13T19:55:08.653Z,94.92
2018-12-13T19:58:12.085Z,94.73
2018-12-13T20:01:16.671Z,96.14
2018-12-13T20:04:20.297Z,97.00
2018-12-13T20:07:24.737Z,97.04
2018-12-13T20:10:29.297Z,97.74
2018-12-13T20:13:32.967Z,98.35
2018-12-13T20:16:36.570Z,97.81
2018-12-13T20:19:41.688Z,98.56
2018-12-13T20:22:46.280Z,98.28
2018-12-13T20:25:49.938Z,98.52
2018-12-13T20:28:55.361Z,99.45
2018-12-13T20:31:59.053Z,99.16
2018-12-13T20:35:02.769Z,99.48
2018-12-13T20:38:09.301Z,99.18
2018-12-13T20:41:13.345Z,99.34
2018-12-13T20:44:26.635Z,99.07
2018-12-13T20:47:30.230Z,99.46
2018-12-13T20:50:33.595Z,98.72
2018-12-13T20:53:37.137Z,99.13
2018-12-13T20:56:40.453Z,98.03
2018-12-13T20:59:43.813Z,98.04
2018-12-13T21:02:47.217Z,98.32
2018-12-13T21:05:50.975Z,98.25
2018-12-13T21:08:54.448Z,99.62
2018-12-13T21:11:58.061Z,99.00
2018-12-13T21:15:01.519Z,100.00
2018-12-13T21:18:05.051Z,100.00
2018-12-13T21:21:08.451Z,99.38
2018-12-13T21:24:11.804Z,99.51
2018-12-13T21:27:15.172Z,99.59
2018-12-13T21:30:18.780Z,99.77
2018-12-13T21:33:22.181Z,99.52
2018-12-13T21:36:25.561Z,99.98
2018-12-13T21:39:29.147Z,99.32
2018-12-13T21:42:32.541Z,99.35
2018-12-13T21:45:36.188Z,99.17
2018-12-13T21:48:39.730Z,99.62
2018-12-13T21:51:43.128Z,98.78
2018-12-13T21:54:46.533Z,98.81
2018-12-13T21:57:49.942Z,99.19
2018-12-13T22:00:53.394Z,99.48
2018-12-13T22:03:56.807Z,98.91
2018-12-13T22:07:00.127Z,99.55
2018-12-13T22:10:05.167Z,99.45
2018-12-13T22:13:08.490Z,99.79
2018-12-13T22:16:11.805Z,99.75
2018-12-13T22:19:15.114Z,99.86
2018-12-13T22:22:18.649Z,99.76
2018-12-13T22:25:22.030Z,99.10
2018-12-13T22:28:25.353Z,99.63
2018-12-13T22:31:28.702Z,99.94
2018-12-13T22:34:32.024Z,100.00
2018-12-13T22:37:35.336Z,100.00
2018-12-13T22:40:39.349Z,100.00
2018-12-13T22:43:42.678Z,100.00
2018-12-13T22:46:46.094Z,98.68
2018-12-13T22:49:49.406Z,98.53
2018-12-13T22:52:52.725Z,98.02
2018-12-13T22:55:56.097Z,98.20
2018-12-13T22:58:59.412Z,98.65
2018-12-13T23:02:02.739Z,98.30
2018-12-13T23:05:06.668Z,98.60
2018-12-13T23:08:10.060Z,99.13
2018-12-13T23:11:13.718Z,98.51
2018-12-13T23:14:17.034Z,98.42
2018-12-13T23:17:20.976Z,98.70
2018-12-13T23:20:24.282Z,98.62
2018-12-13T23:23:27.691Z,98.04
2018-12-13T23:26:32.762Z,98.77
2018-12-13T23:29:36.068Z,98.71
2018-12-13T23:32:39.434Z,98.44
2018-12-13T23:35:42.809Z,98.52
2018-12-13T23:38:46.209Z,98.14
2018-12-13T23:41:49.522Z,98.70
2018-12-13T23:44:52.925Z,98.48
2018-12-13T23:47:56.243Z,98.68
2018-12-13T23:50:59.580Z,98.48
2018-12-13T23:54:03.081Z,99.16
2018-12-13T23:57:06.438Z,98.93
